Bellefountain, Indiana
Current Conditions -  °F | °C
As of 1:53 PM on Friday 31 Oct 2014 (Local Time) from KMIE Reporting Station
Overcast Overcast  
Wind Chill:   Ceiling: 1800
Heat Index:   Visibility: 10mi
Dew Point:   Wind: 17mph
Humidity: 82%   Direction: 300°WNW
Pressure: 29.94"   Gusts: 24mph
Location:  40.4312°N, 85.0058°W
Report Text: KMIE 311753Z 30015G21KT 10SM BKN018 BKN023 OVC028 05/02 A2994 RMK AO2 RAB03E16 SLP138 P0000 60011 T00500022 10061 20044 58010
Loading
Personal Weather Stations






























Interactive Weather Map
Tropical Storm Tracking
New forecast layout! Learn more

10-Day Weather Forecast

Advertisements
Track Severe Weather on mobile